SBOSBO SKG / LGTS
Speedbird OnlineSpeedbird Online SKG / LGTS

Thessaloniki Macedonia International Airport
23:34 17.6°C

Location Thessaloniki, Greece
Latitude: 40.51969909667969
Longitude: 22.97089958190918
Web Wikipedia
Altitude 7 Meter / 22 Feet
Distance 2,131 KM / 1,324 Miles
from London.
Time Zone UTC +3 hours (Europe/Athens)
Codes IATA: SKG
ICAO: LGTS
Currency £1 equals EUR 1.12
Runways
RunwayLength (m)Surface
103440Asphalt
162410Asphalt
283440Asphalt
342410Asphalt
Radio
TypeDescriptionFrequency
A/GRDO563.7
APPAPP120.8
ATISATIS127.55
CLDCLNC DEL118.05
GNDGND121.7
TWRTWR118.1
Live ATC
METAR LGTS 242020Z 10007KT CAVOK 14/09 Q1020 NOSIG
TAF TAF LGTS 241700Z 2418/2518 VRB03KT 9999 FEW025 PROB30 2502/2506 SCT008 BECMG 2510/2512 15013KT
Weather As Of 24 Sep 2022 23:34
Description Scattered clouds
Wind 3 km/h from East (76°)
Cloud Cover 43%
Precipitation Rain: none, Snow: none
Sunrise 07:17
Sunset 19:23
Lounges Manolis Andronikos Skyserv Lounge , Main Terminal
Rotations During the last 90 days there were
89 flights from LHR
42 flights from LGW
8 flights from LCY
88 flights to LHR
42 flights to LGW
8 flights to LCY


© 2017-2022 Speedbird Online